Saint-Jerome, Canada
Current Conditions -  °F | °C
As of 9:00 AM on Thursday 30 Oct 2014 (Local Time) from CYMX Reporting Station
Few Clouds Few Clouds  
Wind Chill:   Ceiling: Unl
Heat Index:   Visibility: 35mi
Dew Point:   Wind: 2mph
Humidity: 75%   Direction: NA
Pressure: 29.98"   Gusts: NA
Location:  45.77°N, 74°W
Report Text: CYMX 301300Z VRB02KT 35SM FEW025 04/00 A2998 RMK SC2 SLP153
Loading
Personal Weather Stations






























Interactive Weather Map
Tropical Storm Tracking
New forecast layout! Learn more

10-Day Weather Forecast

Advertisements
Track Severe Weather on mobile